createdAt,value
2022-10-31T00:03:05.358Z,49.67
2022-10-31T00:08:06.205Z,44.58
2022-10-31T00:13:07.110Z,47.60
2022-10-31T00:18:11.001Z,39.55
2022-10-31T00:23:13.276Z,45.42
2022-10-31T00:28:14.118Z,41.03
2022-10-31T00:33:16.284Z,39.03
2022-10-31T00:38:17.102Z,43.22
2022-10-31T00:43:17.934Z,43.38
2022-10-31T00:48:20.068Z,43.13
2022-10-31T00:53:23.285Z,41.25
2022-10-31T00:58:24.084Z,39.83
2022-10-31T01:03:28.503Z,43.88
2022-10-31T01:08:29.900Z,43.85
2022-10-31T01:13:30.870Z,38.42
2022-10-31T01:18:33.416Z,38.05
2022-10-31T01:23:36.385Z,42.15
2022-10-31T01:28:39.979Z,38.75
2022-10-31T01:33:42.183Z,36.85
2022-10-31T01:38:43.379Z,37.17
2022-10-31T01:43:46.533Z,46.03
2022-10-31T01:48:49.826Z,40.75
2022-10-31T01:53:54.545Z,39.60
2022-10-31T01:58:56.968Z,41.20
2022-10-31T02:03:59.126Z,36.95
2022-10-31T02:09:02.538Z,38.65
2022-10-31T02:14:04.662Z,41.25
2022-10-31T02:19:14.385Z,32.17
2022-10-31T02:24:46.516Z,35.72
2022-10-31T02:30:13.193Z,37.80
2022-10-31T02:35:29.414Z,39.40
2022-10-31T02:40:37.724Z,42.80
2022-10-31T02:46:00.136Z,31.15
2022-10-31T02:51:05.835Z,38.30
2022-10-31T02:56:10.864Z,36.50
2022-10-31T03:01:40.224Z,36.40
2022-10-31T03:06:51.490Z,42.22
2022-10-31T03:11:59.964Z,30.48
2022-10-31T03:17:06.218Z,45.05
2022-10-31T03:22:17.563Z,36.97
2022-10-31T03:27:23.327Z,35.55
2022-10-31T03:32:28.242Z,31.35
2022-10-31T03:37:33.105Z,37.05
2022-10-31T03:42:36.873Z,38.72
2022-10-31T03:47:38.990Z,31.00
2022-10-31T03:52:49.134Z,35.90
2022-10-31T03:57:55.321Z,35.58
2022-10-31T04:03:02.403Z,32.47
2022-10-31T04:08:13.959Z,30.70
2022-10-31T04:18:33.141Z,29.98
2022-10-31T04:23:37.752Z,32.05
2022-10-31T04:28:56.138Z,29.08
2022-10-31T04:33:56.915Z,27.40
2022-10-31T04:38:59.138Z,29.17
2022-10-31T04:44:14.855Z,32.88
2022-10-31T04:49:15.831Z,30.08
2022-10-31T04:54:18.377Z,25.35
2022-10-31T04:59:45.276Z,26.23
2022-10-31T05:04:46.060Z,29.73
2022-10-31T05:09:48.263Z,24.38
2022-10-31T05:14:49.206Z,26.27
2022-10-31T05:20:18.419Z,31.02
2022-10-31T05:25:22.380Z,23.65
2022-10-31T05:30:26.150Z,23.85
2022-10-31T05:35:29.033Z,21.92
2022-10-31T05:40:49.666Z,26.98
2022-10-31T05:45:54.263Z,24.05
2022-10-31T05:51:15.028Z,23.55
2022-10-31T05:56:17.146Z,23.75
2022-10-31T06:01:17.977Z,22.00
2022-10-31T06:06:20.386Z,22.60
2022-10-31T06:11:22.521Z,20.60
2022-10-31T06:16:38.073Z,20.20
2022-10-31T06:22:01.642Z,21.20
2022-10-31T06:27:04.674Z,24.52
2022-10-31T06:32:06.963Z,23.42
2022-10-31T06:37:14.167Z,25.25
2022-10-31T06:42:19.766Z,27.77
2022-10-31T06:47:21.012Z,23.33
2022-10-31T06:52:21.832Z,27.95
2022-10-31T06:57:24.103Z,20.48
2022-10-31T07:02:25.240Z,19.08
2022-10-31T07:07:26.575Z,18.70
2022-10-31T07:12:29.118Z,21.75
2022-10-31T07:17:32.878Z,18.73
2022-10-31T07:22:35.795Z,17.85
2022-10-31T07:27:42.650Z,18.55
2022-10-31T07:32:46.826Z,17.92
2022-10-31T07:37:50.229Z,19.42
2022-10-31T07:42:55.126Z,17.25
2022-10-31T07:48:25.105Z,18.40
2022-10-31T07:53:44.136Z,17.33
2022-10-31T07:58:52.073Z,15.52
2022-10-31T08:03:53.212Z,16.20
2022-10-31T08:09:16.835Z,17.15
2022-10-31T08:14:20.314Z,16.60
2022-10-31T08:19:21.418Z,20.35
2022-10-31T08:24:24.233Z,15.43
2022-10-31T08:29:26.422Z,15.45
2022-10-31T08:34:27.963Z,16.23
2022-10-31T08:39:47.626Z,16.38
2022-10-31T08:44:50.052Z,13.02
2022-10-31T08:49:54.970Z,12.40
2022-10-31T08:54:56.713Z,11.23
2022-10-31T09:00:25.261Z,12.75
2022-10-31T09:05:32.367Z,14.77
2022-10-31T09:10:35.077Z,17.38
2022-10-31T09:15:41.383Z,13.25
2022-10-31T09:20:54.806Z,13.30
2022-10-31T09:25:56.571Z,19.67
2022-10-31T09:31:18.982Z,10.35
2022-10-31T09:36:28.780Z,12.15
2022-10-31T09:41:41.248Z,12.27
2022-10-31T09:46:57.819Z,14.50
2022-10-31T09:52:04.878Z,11.63
2022-10-31T09:57:07.644Z,12.40
2022-10-31T10:02:18.539Z,10.77
2022-10-31T10:07:27.785Z,12.27
2022-10-31T10:13:17.011Z,11.05
2022-10-31T10:18:30.408Z,12.45
2022-10-31T10:23:43.049Z,13.55
2022-10-31T10:28:46.931Z,11.38
2022-10-31T10:33:59.628Z,11.18
2022-10-31T10:39:04.869Z,14.50
2022-10-31T10:44:10.687Z,10.70
2022-10-31T10:49:30.291Z,13.32
2022-10-31T11:00:23.809Z,9.30
2022-10-31T11:05:32.592Z,13.05
2022-10-31T11:10:34.292Z,15.82
2022-10-31T11:15:39.779Z,22.35
2022-10-31T11:20:42.028Z,20.52
2022-10-31T11:25:50.567Z,20.13
2022-10-31T11:30:53.390Z,15.85
2022-10-31T11:35:58.114Z,18.38
2022-10-31T11:41:03.482Z,15.38
2022-10-31T11:46:11.629Z,14.98
2022-10-31T11:51:13.841Z,14.30
2022-10-31T11:56:16.673Z,16.63
2022-10-31T12:01:27.620Z,15.25
2022-10-31T12:06:33.973Z,16.83
2022-10-31T12:11:46.027Z,13.25
2022-10-31T12:16:53.091Z,17.27
2022-10-31T12:22:09.305Z,13.10
2022-10-31T12:27:21.851Z,15.32
2022-10-31T12:32:32.711Z,16.13
2022-10-31T12:37:49.701Z,14.00
2022-10-31T12:43:03.550Z,14.50
2022-10-31T12:48:21.473Z,17.77
2022-10-31T12:53:39.136Z,19.00
2022-10-31T12:58:47.103Z,17.35
2022-10-31T13:03:55.940Z,16.08
2022-10-31T13:09:01.888Z,12.40
2022-10-31T13:14:08.828Z,15.85
2022-10-31T13:19:18.203Z,13.45
2022-10-31T13:24:25.508Z,16.35
2022-10-31T13:29:32.840Z,12.20
2022-10-31T13:34:39.504Z,12.30
2022-10-31T13:39:54.590Z,13.90
2022-10-31T13:44:55.425Z,8.93
2022-10-31T13:50:07.067Z,10.55
2022-10-31T13:55:39.370Z,12.82
2022-10-31T14:00:40.240Z,15.27
2022-10-31T14:05:41.939Z,10.85
2022-10-31T14:10:50.416Z,9.80
2022-10-31T14:15:57.570Z,13.98
2022-10-31T14:20:58.494Z,11.43
2022-10-31T14:26:19.114Z,10.30
2022-10-31T14:31:35.786Z,8.90
2022-10-31T14:36:49.158Z,11.55
2022-10-31T14:42:05.020Z,10.50
2022-10-31T14:47:18.128Z,11.00
2022-10-31T14:52:22.162Z,10.60
2022-10-31T14:57:27.826Z,7.72
2022-10-31T15:02:31.842Z,8.75
2022-10-31T15:07:37.373Z,10.40
2022-10-31T15:12:40.040Z,11.55
2022-10-31T15:17:45.805Z,11.52
2022-10-31T15:22:47.059Z,14.85
2022-10-31T15:27:51.172Z,10.65
2022-10-31T15:33:01.099Z,11.43
2022-10-31T15:38:02.905Z,20.15
2022-10-31T15:43:08.639Z,12.13
2022-10-31T15:48:18.971Z,11.23
2022-10-31T15:53:22.850Z,15.90
2022-10-31T15:58:26.560Z,18.58
2022-10-31T16:03:30.867Z,23.48
2022-10-31T16:08:37.532Z,19.80
2022-10-31T16:13:54.363Z,20.80
2022-10-31T16:18:56.939Z,16.25
2022-10-31T16:24:05.782Z,16.58
2022-10-31T16:29:27.894Z,17.40
2022-10-31T16:34:29.084Z,22.65
2022-10-31T16:39:29.878Z,16.98
2022-10-31T16:44:32.043Z,14.43
2022-10-31T16:49:32.882Z,29.90
2022-10-31T16:54:33.980Z,21.30
2022-10-31T16:59:37.410Z,20.85
2022-10-31T17:04:38.521Z,23.55
2022-10-31T17:09:39.338Z,31.30
2022-10-31T17:14:41.501Z,31.90
2022-10-31T17:19:42.382Z,24.27
2022-10-31T17:24:43.197Z,28.48
2022-10-31T17:29:45.360Z,33.00
2022-10-31T17:34:47.032Z,29.08
2022-10-31T17:39:48.176Z,32.65
2022-10-31T17:44:50.456Z,29.92
2022-10-31T17:49:53.179Z,37.72
2022-10-31T17:54:53.973Z,34.63
2022-10-31T17:59:56.252Z,40.22
2022-10-31T18:04:57.075Z,40.80
2022-10-31T18:09:57.904Z,37.42
2022-10-31T18:15:00.362Z,38.53
2022-10-31T18:20:01.266Z,39.10
2022-10-31T18:25:02.539Z,42.40
2022-10-31T18:30:05.671Z,43.70
2022-10-31T18:35:07.165Z,42.10
2022-10-31T18:40:09.193Z,67.78
2022-10-31T18:45:31.275Z,66.68
2022-10-31T18:50:33.421Z,45.38
2022-10-31T18:55:34.177Z,40.60
2022-10-31T19:00:36.388Z,48.42
2022-10-31T19:05:37.245Z,40.55
2022-10-31T19:10:42.960Z,32.80
2022-10-31T19:15:45.519Z,30.98
2022-10-31T19:20:48.394Z,36.38
2022-10-31T19:25:49.228Z,38.20
2022-10-31T19:30:55.408Z,28.48
2022-10-31T19:36:00.460Z,32.30
2022-10-31T19:41:04.558Z,34.45
2022-10-31T19:46:17.345Z,29.65
2022-10-31T19:51:28.758Z,35.15
2022-10-31T19:56:29.598Z,29.98
2022-10-31T20:01:32.102Z,30.40
2022-10-31T20:06:35.449Z,34.65
2022-10-31T20:11:39.201Z,29.08
2022-10-31T20:16:41.971Z,38.00
2022-10-31T20:21:43.086Z,33.08
2022-10-31T20:26:43.927Z,40.85
2022-10-31T20:31:47.497Z,34.03
2022-10-31T20:36:48.447Z,33.95
2022-10-31T20:41:49.401Z,30.95
2022-10-31T20:46:51.559Z,33.50
2022-10-31T20:51:52.304Z,35.17
2022-10-31T20:56:53.324Z,39.05
2022-10-31T21:01:55.604Z,33.90
2022-10-31T21:06:56.480Z,36.88
2022-10-31T21:11:57.372Z,38.72
2022-10-31T21:16:59.544Z,31.25
2022-10-31T21:22:00.413Z,33.03
2022-10-31T21:27:02.818Z,34.15
2022-10-31T21:32:05.193Z,35.60
2022-10-31T21:37:06.195Z,34.40
2022-10-31T21:42:07.091Z,26.23
2022-10-31T21:47:09.262Z,29.88
2022-10-31T21:52:10.310Z,33.90
2022-10-31T21:57:11.240Z,32.15
2022-10-31T22:02:13.626Z,34.63
2022-10-31T22:07:14.893Z,32.22
2022-10-31T22:12:15.802Z,32.47
2022-10-31T22:17:17.996Z,32.63
2022-10-31T22:22:18.845Z,29.15
2022-10-31T22:27:19.746Z,34.90
2022-10-31T22:32:23.430Z,30.45
2022-10-31T22:37:24.311Z,32.10
2022-10-31T22:42:25.055Z,39.15
2022-10-31T22:47:27.209Z,36.13
2022-10-31T22:52:29.110Z,29.33
2022-10-31T22:57:29.862Z,32.13
2022-10-31T23:02:32.073Z,36.45
2022-10-31T23:07:33.204Z,36.80
2022-10-31T23:12:51.373Z,33.13
2022-10-31T23:17:53.514Z,32.67
2022-10-31T23:22:54.275Z,33.10
2022-10-31T23:27:55.078Z,33.00
2022-10-31T23:32:57.276Z,38.53
2022-10-31T23:37:58.624Z,36.80
2022-10-31T23:42:59.626Z,44.00
2022-10-31T23:48:02.125Z,40.85
2022-10-31T23:53:03.204Z,43.65
2022-10-31T23:58:04.307Z,48.42
